Time;durP1;ratioP1;P1;durP2;ratioP2;P2;SDS_P1;SDS_P2;PMS_P1;PMS_P2;Temp;Humidity;BMP_temperature;BMP_pressure;BME280_temperature;BME280_humidity;BME280_pressure;Samples;Min_cycle;Max_cycle;Signal;HPM_P1;HPM_P2
2023/02/03 00:00:34;;;;;;;3.75;2.58;;;8.30;99.90;;;;;;5038097;28;20196;-78
2023/02/03 00:03:01;;;;;;;6.35;3.28;;;8.30;99.90;;;;;;5038354;28;20192;-79
2023/02/03 00:05:29;;;;;;;6.05;3.38;;;8.30;99.90;;;;;;5037632;28;20192;-79
2023/02/03 00:07:56;;;;;;;5.65;4.85;;;8.30;99.90;;;;;;5037624;28;20215;-78
2023/02/03 00:10:22;;;;;;;2.80;2.70;;;8.30;99.90;;;;;;5037293;28;20191;-78
2023/02/03 00:12:51;;;;;;;6.15;4.40;;;8.30;99.90;;;;;;5038676;28;20198;-79
2023/02/03 00:15:19;;;;;;;2.78;2.58;;;8.30;99.90;;;;;;5037058;28;20195;-78
2023/02/03 00:17:47;;;;;;;0.90;0.90;;;8.30;99.90;;;;;;5037366;28;20215;-79
2023/02/03 00:20:14;;;;;;;2.80;1.77;;;8.30;99.90;;;;;;5037906;28;20234;-78
2023/02/03 00:22:41;;;;;;;9.75;4.43;;;8.30;99.90;;;;;;5037951;28;20259;-79
2023/02/03 00:25:08;;;;;;;2.97;2.35;;;8.30;99.90;;;;;;5036864;28;20202;-79
2023/02/03 00:27:35;;;;;;;3.30;2.40;;;8.30;99.90;;;;;;5037398;28;20243;-78
2023/02/03 00:30:02;;;;;;;4.13;2.00;;;8.30;99.90;;;;;;5036882;28;20291;-78
2023/02/03 00:32:29;;;;;;;3.40;1.92;;;8.30;99.90;;;;;;5036508;28;20195;-78
2023/02/03 00:34:57;;;;;;;6.68;5.72;;;8.30;99.90;;;;;;5036145;28;20199;-78
2023/02/03 00:37:24;;;;;;;3.75;1.95;;;8.30;99.90;;;;;;5034898;28;20223;-78
2023/02/03 00:39:51;;;;;;;2.97;2.70;;;8.30;99.90;;;;;;5035473;28;20233;-79
2023/02/03 00:42:18;;;;;;;2.58;2.38;;;8.30;99.90;;;;;;5035493;28;20202;-78
2023/02/03 00:44:45;;;;;;;9.63;3.90;;;8.40;99.90;;;;;;5035429;28;20203;-79
2023/02/03 00:47:11;;;;;;;2.22;1.73;;;8.40;99.90;;;;;;5035391;28;20306;-78
2023/02/03 00:49:38;;;;;;;2.70;2.50;;;8.40;99.90;;;;;;5033366;28;20196;-78
2023/02/03 00:52:07;;;;;;;6.75;5.65;;;8.40;99.90;;;;;;5034874;28;20218;-78
2023/02/03 00:54:33;;;;;;;3.78;3.38;;;8.40;99.90;;;;;;5034163;28;20641;-77
2023/02/03 00:57:00;;;;;;;5.43;3.00;;;8.40;99.90;;;;;;5033715;28;20249;-79
2023/02/03 00:59:27;;;;;;;3.80;1.63;;;8.40;99.90;;;;;;5034665;28;20199;-78
2023/02/03 01:01:54;;;;;;;4.35;3.10;;;8.40;99.90;;;;;;5034332;28;20235;-79
2023/02/03 01:04:22;;;;;;;3.55;3.25;;;8.40;99.90;;;;;;5034328;28;20266;-78
2023/02/03 01:06:49;;;;;;;1.02;0.93;;;8.40;99.90;;;;;;5034114;28;20577;-78
2023/02/03 01:09:17;;;;;;;6.72;2.55;;;8.50;99.90;;;;;;5034296;28;20230;-78
2023/02/03 01:11:44;;;;;;;1.92;1.83;;;8.50;99.90;;;;;;5034663;28;20206;-77
2023/02/03 01:14:11;;;;;;;13.93;4.45;;;8.40;99.90;;;;;;5034897;28;20203;-78
2023/02/03 01:16:38;;;;;;;0.75;0.75;;;8.50;99.90;;;;;;5034664;28;20225;-79
2023/02/03 01:19:05;;;;;;;2.92;2.65;;;8.40;99.90;;;;;;5035150;28;20565;-78
2023/02/03 01:21:34;;;;;;;1.30;0.75;;;8.50;99.90;;;;;;5034755;28;20195;-78
2023/02/03 01:24:01;;;;;;;4.10;3.83;;;8.50;99.90;;;;;;5035435;28;20206;-78
2023/02/03 01:26:29;;;;;;;6.90;3.20;;;8.50;99.90;;;;;;5033997;28;20249;-78
2023/02/03 01:28:58;;;;;;;32.97;5.65;;;8.50;99.90;;;;;;5035432;28;20572;-79
2023/02/03 01:31:28;;;;;;;4.20;3.75;;;8.50;99.90;;;;;;5034367;28;20233;-78
2023/02/03 01:33:55;;;;;;;1.98;1.83;;;8.50;99.90;;;;;;5035523;28;20550;-77
2023/02/03 01:36:24;;;;;;;1.45;0.93;;;8.50;99.90;;;;;;5034482;28;20227;-79
2023/02/03 01:38:51;;;;;;;4.93;3.40;;;8.50;99.90;;;;;;5034714;28;20199;-79
2023/02/03 01:41:19;;;;;;;3.67;2.05;;;8.50;99.90;;;;;;5033637;28;20199;-78
2023/02/03 01:43:50;;;;;;;1.42;1.40;;;8.50;99.90;;;;;;5034266;28;20196;-78
2023/02/03 01:46:25;;;;;;;1.65;1.38;;;8.50;99.90;;;;;;5038582;28;20179;-78
2023/02/03 01:48:56;;;;;;;2.47;2.28;;;8.50;99.90;;;;;;5074353;28;20178;-79
2023/02/03 01:51:23;;;;;;;2.22;1.52;;;8.50;99.90;;;;;;5073251;28;20257;-79
2023/02/03 01:53:52;;;;;;;2.13;1.92;;;8.50;99.90;;;;;;5072765;28;20762;-79
2023/02/03 01:56:19;;;;;;;3.75;3.45;;;8.60;99.90;;;;;;5072750;28;20245;-78
2023/02/03 01:58:49;;;;;;;4.43;4.05;;;8.60;99.90;;;;;;5072964;28;20197;-77
2023/02/03 02:01:16;;;;;;;2.72;2.35;;;8.60;99.90;;;;;;5073210;28;20611;-78
2023/02/03 02:03:48;;;;;;;3.63;1.58;;;8.60;99.90;;;;;;5073114;28;20193;-78
2023/02/03 02:06:15;;;;;;;3.22;1.75;;;8.60;99.90;;;;;;5072852;28;20204;-78
2023/02/03 02:08:46;;;;;;;1.25;1.13;;;8.60;99.90;;;;;;5073298;28;20224;-78
2023/02/03 02:11:13;;;;;;;1.35;1.35;;;8.60;99.90;;;;;;5073080;28;20289;-78
2023/02/03 02:13:42;;;;;;;8.02;4.10;;;8.60;99.90;;;;;;5072624;28;20194;-78
2023/02/03 02:16:16;;;;;;;10.52;6.30;;;8.60;99.90;;;;;;5071665;28;20221;-78
2023/02/03 02:18:56;;;;;;;1.25;0.85;;;8.50;99.90;;;;;;5072572;28;20185;-78
2023/02/03 02:21:44;;;;;;;6.05;5.05;;;8.50;99.90;;;;;;5072882;28;20202;-78
2023/02/03 02:24:43;;;;;;;0.50;0.40;;;8.60;99.90;;;;;;5073253;28;20224;-78
2023/02/03 02:27:23;;;;;;;4.55;4.10;;;8.60;99.90;;;;;;5073262;28;20224;-78
2023/02/03 02:30:19;;;;;;;3.55;1.98;;;8.60;99.90;;;;;;5073255;28;20197;-79
2023/02/03 02:33:10;;;;;;;1.67;1.25;;;8.60;99.90;;;;;;5072998;28;20220;-78
2023/02/03 02:35:49;;;;;;;1.92;1.83;;;8.60;99.90;;;;;;5073188;28;20734;-78
2023/02/03 02:38:24;;;;;;;1.60;0.77;;;8.60;99.90;;;;;;5072834;28;20225;-78
2023/02/03 02:40:56;;;;;;;0.60;0.60;;;8.60;99.90;;;;;;5072953;28;20273;-79
2023/02/03 02:43:28;;;;;;;1.25;1.25;;;8.60;99.90;;;;;;5073096;28;20273;-78
2023/02/03 02:46:01;;;;;;;1.10;1.10;;;8.60;99.90;;;;;;5073592;28;20206;-78
2023/02/03 02:48:35;;;;;;;3.92;2.53;;;8.60;99.90;;;;;;5073839;28;20266;-79
2023/02/03 02:51:05;;;;;;;3.97;1.77;;;8.60;99.90;;;;;;5073825;28;20198;-78
2023/02/03 02:53:37;;;;;;;5.57;3.08;;;8.60;99.90;;;;;;5073408;28;20252;-78
2023/02/03 02:56:07;;;;;;;2.72;2.25;;;8.60;99.90;;;;;;5073675;28;20198;-78
2023/02/03 02:58:38;;;;;;;9.35;5.55;;;8.60;99.90;;;;;;5076704;28;20194;-78
2023/02/03 03:01:08;;;;;;;3.53;3.15;;;8.50;99.90;;;;;;5076944;28;20621;-78
2023/02/03 03:03:39;;;;;;;2.28;1.98;;;8.50;99.90;;;;;;5076336;28;20280;-78
2023/02/03 03:06:11;;;;;;;1.10;1.05;;;8.50;99.90;;;;;;5117537;22;20217;-79
2023/02/03 03:08:42;;;;;;;11.70;4.22;;;8.50;99.90;;;;;;5049107;28;20197;-80
2023/02/03 03:11:09;;;;;;;0.50;0.50;;;8.50;99.90;;;;;;5060271;28;20201;-80
2023/02/03 03:13:46;;;;;;;1.05;0.80;;;8.50;99.90;;;;;;5060617;28;20194;-80
2023/02/03 03:16:16;;;;;;;1.50;1.40;;;8.50;99.90;;;;;;5039474;28;20221;-79
2023/02/03 03:18:47;;;;;;;0.73;0.70;;;8.60;99.90;;;;;;5041189;28;20191;-79
2023/02/03 03:21:19;;;;;;;3.55;0.82;;;8.50;99.90;;;;;;5039916;28;20186;-80
2023/02/03 03:23:49;;;;;;;1.40;1.30;;;8.60;99.90;;;;;;5040239;28;20186;-81
2023/02/03 03:26:22;;;;;;;1.20;0.85;;;8.60;99.90;;;;;;5039552;28;20700;-80
2023/02/03 03:28:50;;;;;;;1.15;1.05;;;8.50;99.90;;;;;;5039732;28;20180;-80
2023/02/03 03:31:18;;;;;;;1.73;1.60;;;8.50;99.90;;;;;;5039462;28;20202;-80
2023/02/03 03:33:47;;;;;;;0.50;0.50;;;8.50;99.90;;;;;;5040128;28;20195;-80
2023/02/03 03:36:22;;;;;;;0.68;0.47;;;8.50;99.90;;;;;;5040048;28;20329;-80
2023/02/03 03:38:56;;;;;;;2.17;1.55;;;8.50;99.90;;;;;;5040984;28;20202;-79
2023/02/03 03:41:30;;;;;;;0.77;0.50;;;8.50;99.90;;;;;;5041312;28;20195;-81
2023/02/03 03:44:03;;;;;;;0.90;0.80;;;8.60;99.90;;;;;;5040947;28;20253;-80
2023/02/03 03:46:35;;;;;;;3.47;2.42;;;8.50;99.90;;;;;;5040449;28;20238;-80
2023/02/03 03:49:05;;;;;;;1.30;1.20;;;8.50;99.90;;;;;;5041079;28;20195;-80
2023/02/03 03:51:37;;;;;;;0.98;0.65;;;8.50;99.90;;;;;;5042121;28;20195;-79
2023/02/03 03:54:07;;;;;;;0.60;0.60;;;8.60;99.90;;;;;;5040916;28;20218;-79
2023/02/03 03:56:46;;;;;;;1.63;1.17;;;8.60;99.90;;;;;;5041715;28;20238;-80
2023/02/03 03:59:16;;;;;;;0.50;0.40;;;8.60;99.90;;;;;;5041799;28;20187;-80
2023/02/03 04:01:44;;;;;;;0.60;0.57;;;8.60;99.90;;;;;;5041069;28;20203;-80
2023/02/03 04:04:13;;;;;;;2.45;1.58;;;8.50;99.90;;;;;;5040570;28;20195;-80
2023/02/03 04:06:40;;;;;;;1.00;0.60;;;8.60;99.90;;;;;;5040299;28;20219;-79
2023/02/03 04:09:07;;;;;;;2.97;2.78;;;8.60;99.90;;;;;;5040802;28;20285;-80
2023/02/03 04:14:15;;;;;;;1.38;1.27;;;8.60;99.90;;;;;;5031704;28;20195;-79
2023/02/03 04:16:42;;;;;;;2.45;2.35;;;8.60;99.90;;;;;;5041735;28;20302;-80
2023/02/03 04:19:09;;;;;;;2.00;1.65;;;8.60;99.90;;;;;;5042850;28;20203;-80
2023/02/03 04:21:37;;;;;;;0.50;0.45;;;8.60;99.90;;;;;;5039682;28;20237;-79
2023/02/03 04:24:05;;;;;;;5.63;3.60;;;8.60;99.90;;;;;;5039650;28;20680;-78
2023/02/03 04:26:32;;;;;;;3.70;2.17;;;8.60;99.90;;;;;;5040422;28;20712;-80
2023/02/03 04:28:58;;;;;;;0.98;0.93;;;8.60;99.90;;;;;;5042478;28;20199;-79
2023/02/03 04:31:25;;;;;;;1.02;1.02;;;8.60;99.90;;;;;;5041757;28;20278;-79
2023/02/03 04:33:52;;;;;;;2.20;1.77;;;8.60;99.90;;;;;;5040966;28;20227;-80
2023/02/03 04:36:19;;;;;;;0.55;0.55;;;8.60;99.90;;;;;;5043249;28;20215;-79
2023/02/03 04:38:48;;;;;;;2.45;1.25;;;8.60;99.90;;;;;;5043191;28;20735;-79
2023/02/03 04:41:15;;;;;;;2.33;2.17;;;8.60;99.90;;;;;;5042900;28;20199;-80
2023/02/03 04:43:42;;;;;;;0.50;0.43;;;8.60;99.90;;;;;;5043102;28;20278;-81
2023/02/03 04:46:10;;;;;;;2.25;2.05;;;8.60;99.90;;;;;;5042395;28;20577;-83
2023/02/03 04:48:37;;;;;;;1.85;1.58;;;8.60;99.90;;;;;;5043267;28;20214;-80
2023/02/03 04:51:06;;;;;;;1.45;1.35;;;8.70;99.90;;;;;;5042859;28;20206;-79
2023/02/03 04:53:34;;;;;;;0.93;0.93;;;8.60;99.90;;;;;;5043099;28;20230;-79
2023/02/03 04:56:03;;;;;;;14.55;3.20;;;8.70;99.90;;;;;;5042512;28;20310;-80
2023/02/03 04:58:30;;;;;;;3.75;1.20;;;8.60;99.90;;;;;;5023744;28;20269;-80
2023/02/03 05:00:58;;;;;;;3.90;2.35;;;8.60;99.90;;;;;;5024291;28;20199;-77
2023/02/03 05:03:25;;;;;;;0.50;0.40;;;8.60;99.90;;;;;;5042423;28;20199;-79
2023/02/03 05:05:52;;;;;;;3.80;1.55;;;8.60;99.90;;;;;;5040413;28;20254;-78
2023/02/03 05:08:19;;;;;;;0.80;0.80;;;8.60;99.90;;;;;;5039890;28;20623;-80
2023/02/03 05:10:46;;;;;;;0.50;0.50;;;8.60;99.90;;;;;;5039793;28;20677;-78
2023/02/03 05:13:14;;;;;;;2.50;2.30;;;8.60;99.90;;;;;;5038675;28;20263;-78
2023/02/03 05:15:41;;;;;;;2.08;1.88;;;8.70;99.90;;;;;;5038771;28;20305;-80
2023/02/03 05:18:08;;;;;;;1.55;1.45;;;8.60;99.90;;;;;;5038999;28;20253;-78
2023/02/03 05:20:36;;;;;;;0.75;0.73;;;8.60;99.90;;;;;;5037921;28;20235;-79
2023/02/03 05:23:03;;;;;;;1.15;1.08;;;8.60;99.90;;;;;;5038897;28;20215;-81
2023/02/03 05:25:30;;;;;;;0.50;0.40;;;8.70;99.90;;;;;;5038897;28;20306;-82
2023/02/03 05:27:57;;;;;;;7.25;3.47;;;8.70;99.90;;;;;;5038682;28;20218;-80
2023/02/03 05:30:25;;;;;;;1.60;0.77;;;8.70;99.90;;;;;;5038925;28;20613;-80
2023/02/03 05:32:52;;;;;;;3.20;1.92;;;8.70;99.90;;;;;;5038374;28;20230;-79
2023/02/03 05:35:18;;;;;;;5.80;2.45;;;8.70;99.90;;;;;;5039063;28;20318;-80
2023/02/03 05:37:46;;;;;;;0.52;0.50;;;8.70;99.90;;;;;;5040737;28;20233;-80
2023/02/03 05:42:57;;;;;;;0.73;0.73;;;8.70;99.90;;;;;;5059093;28;20563;-80
2023/02/03 05:45:26;;;;;;;1.70;1.42;;;8.70;99.90;;;;;;5057218;28;20236;-79
2023/02/03 05:47:52;;;;;;;1.35;1.25;;;8.70;99.90;;;;;;5057570;28;20187;-76
2023/02/03 05:50:21;;;;;;;1.98;0.85;;;8.70;99.90;;;;;;5057106;28;20256;-79
2023/02/03 05:52:48;;;;;;;1.73;1.23;;;8.70;99.90;;;;;;5058719;28;20198;-81
2023/02/03 05:55:15;;;;;;;0.50;0.50;;;8.70;99.90;;;;;;5056887;28;20225;-79
2023/02/03 05:57:42;;;;;;;0.90;0.63;;;8.70;99.90;;;;;;5057236;28;20214;-78
2023/02/03 06:00:10;;;;;;;1.35;1.25;;;8.70;99.90;;;;;;5057842;28;20194;-82
2023/02/03 06:02:38;;;;;;;0.70;0.65;;;8.70;99.90;;;;;;5062308;28;20222;-82
2023/02/03 06:05:06;;;;;;;0.60;0.60;;;8.70;99.90;;;;;;5067812;28;20226;-81
2023/02/03 06:07:33;;;;;;;3.15;0.95;;;8.70;99.90;;;;;;5070940;28;20205;-81
2023/02/03 06:10:00;;;;;;;0.50;0.40;;;8.70;99.90;;;;;;5063432;28;20187;-82
2023/02/03 06:12:26;;;;;;;1.10;0.90;;;8.70;99.90;;;;;;5055855;28;20247;-81
2023/02/03 06:14:53;;;;;;;1.35;1.25;;;8.80;99.90;;;;;;5043877;28;20218;-81
2023/02/03 06:17:20;;;;;;;1.00;0.88;;;8.80;99.90;;;;;;5059612;28;20199;-81
2023/02/03 06:19:48;;;;;;;1.08;0.75;;;8.80;99.90;;;;;;5058248;28;20258;-80
2023/02/03 06:22:15;;;;;;;1.30;0.75;;;8.80;99.90;;;;;;5058671;28;20205;-81
2023/02/03 06:24:43;;;;;;;0.60;0.50;;;8.80;99.90;;;;;;5057291;28;20759;-79
2023/02/03 06:27:10;;;;;;;1.08;0.95;;;8.80;99.90;;;;;;5058090;28;20211;-78
2023/02/03 06:29:37;;;;;;;1.38;1.27;;;8.80;99.90;;;;;;5057003;28;20284;-80
2023/02/03 06:32:04;;;;;;;0.82;0.68;;;8.80;99.90;;;;;;5062002;28;20191;-81
2023/02/03 06:34:32;;;;;;;0.50;0.47;;;8.80;99.90;;;;;;5061153;28;20198;-82
2023/02/03 06:37:00;;;;;;;2.05;1.30;;;8.80;99.90;;;;;;5062257;28;20218;-81
2023/02/03 06:39:27;;;;;;;1.70;0.80;;;8.80;99.90;;;;;;5061947;28;20727;-80
2023/02/03 06:41:55;;;;;;;3.33;1.10;;;8.80;99.90;;;;;;5061842;28;20203;-80
2023/02/03 06:44:22;;;;;;;1.08;1.05;;;8.80;99.90;;;;;;5061522;28;20194;-83
2023/02/03 06:46:50;;;;;;;1.23;1.10;;;8.80;99.90;;;;;;5059911;28;20215;-83
2023/02/03 06:49:17;;;;;;;1.77;1.10;;;8.80;99.90;;;;;;5060998;28;20205;-81
2023/02/03 06:51:44;;;;;;;1.63;1.40;;;8.80;99.90;;;;;;5060955;28;20210;-80
2023/02/03 06:54:13;;;;;;;1.83;1.73;;;8.80;99.90;;;;;;5059091;28;20298;-80
2023/02/03 06:56:40;;;;;;;0.95;0.57;;;8.80;99.90;;;;;;5059856;28;20249;-79
2023/02/03 06:59:07;;;;;;;5.22;1.98;;;8.90;99.90;;;;;;5059376;28;20249;-80
2023/02/03 07:01:34;;;;;;;0.95;0.90;;;8.80;99.90;;;;;;5060534;28;20222;-80
2023/02/03 07:04:01;;;;;;;1.13;0.95;;;8.90;99.90;;;;;;5059690;28;20667;-79
2023/02/03 07:06:31;;;;;;;2.45;1.13;;;8.90;99.90;;;;;;5058935;28;20284;-80
2023/02/03 07:08:58;;;;;;;4.63;1.35;;;8.90;99.90;;;;;;5059590;28;20224;-79
2023/02/03 07:11:27;;;;;;;0.88;0.88;;;8.90;99.90;;;;;;5059415;28;20210;-79
2023/02/03 07:13:54;;;;;;;0.50;0.40;;;8.90;99.90;;;;;;5059150;28;20194;-79
2023/02/03 07:16:21;;;;;;;10.00;1.83;;;8.90;99.90;;;;;;5058487;28;20214;-81
2023/02/03 07:18:48;;;;;;;2.65;1.90;;;8.90;99.90;;;;;;5058780;28;20723;-79
2023/02/03 07:21:15;;;;;;;1.55;1.20;;;8.90;99.90;;;;;;5056277;28;20633;-79
2023/02/03 07:23:43;;;;;;;1.08;0.98;;;8.90;99.90;;;;;;5058397;28;20204;-79
2023/02/03 07:26:11;;;;;;;7.55;1.90;;;8.90;99.90;;;;;;5057527;28;20214;-80
2023/02/03 07:28:39;;;;;;;0.50;0.50;;;8.90;99.90;;;;;;5060196;28;20202;-81
2023/02/03 07:31:06;;;;;;;0.50;0.50;;;8.90;99.90;;;;;;5061519;28;20190;-79
2023/02/03 07:33:33;;;;;;;0.50;0.40;;;8.90;99.90;;;;;;5061067;28;20194;-80
2023/02/03 07:36:01;;;;;;;0.70;0.70;;;8.90;99.90;;;;;;5058832;28;20655;-80
2023/02/03 07:38:28;;;;;;;1.52;1.17;;;8.90;99.90;;;;;;5062014;28;20210;-78
2023/02/03 07:40:56;;;;;;;0.60;0.50;;;8.90;99.90;;;;;;5059115;28;20229;-79
2023/02/03 07:43:23;;;;;;;0.63;0.50;;;8.90;99.90;;;;;;5057986;28;20278;-80
2023/02/03 07:45:51;;;;;;;1.10;0.85;;;9.00;99.90;;;;;;5061063;28;20241;-79
2023/02/03 07:48:18;;;;;;;0.50;0.40;;;8.90;99.90;;;;;;5061175;28;20733;-80
2023/02/03 07:50:45;;;;;;;3.25;1.60;;;8.90;99.90;;;;;;5058010;28;20187;-81
2023/02/03 07:53:12;;;;;;;1.20;0.70;;;9.00;99.90;;;;;;5059490;28;20199;-81
2023/02/03 07:55:39;;;;;;;1.90;0.80;;;9.00;99.90;;;;;;5058961;28;20207;-78
2023/02/03 07:58:07;;;;;;;0.50;0.40;;;9.00;99.90;;;;;;5058995;28;20214;-81
2023/02/03 08:00:34;;;;;;;0.60;0.57;;;9.00;99.90;;;;;;5058437;28;20682;-80
2023/02/03 08:03:02;;;;;;;1.35;1.25;;;9.00;99.90;;;;;;5056762;28;20198;-79
2023/02/03 08:05:29;;;;;;;0.50;0.40;;;9.00;99.90;;;;;;5057556;28;20223;-81
2023/02/03 08:07:56;;;;;;;2.25;1.42;;;9.00;99.90;;;;;;5059666;28;20201;-82
2023/02/03 08:10:23;;;;;;;2.92;1.52;;;8.90;99.90;;;;;;5060447;28;20198;-81
2023/02/03 08:12:52;;;;;;;2.65;1.58;;;8.90;99.90;;;;;;5061059;28;20202;-81
2023/02/03 08:15:19;;;;;;;0.70;0.60;;;8.90;99.90;;;;;;5060177;28;20224;-80
2023/02/03 08:17:46;;;;;;;1.15;1.15;;;9.00;99.90;;;;;;5061098;28;20204;-81
2023/02/03 08:20:15;;;;;;;2.25;1.50;;;9.00;99.90;;;;;;5060758;28;20194;-81
2023/02/03 08:22:42;;;;;;;1.60;1.50;;;9.00;99.90;;;;;;5061706;28;20262;-81
2023/02/03 08:25:10;;;;;;;0.80;0.80;;;9.00;99.90;;;;;;5061179;28;20230;-81
2023/02/03 08:27:37;;;;;;;0.60;0.60;;;9.00;99.90;;;;;;5062153;28;20195;-81
2023/02/03 08:30:04;;;;;;;0.70;0.70;;;9.00;99.90;;;;;;5063067;28;20186;-82
2023/02/03 08:32:33;;;;;;;1.38;1.27;;;9.00;99.90;;;;;;5061561;28;20222;-81
2023/02/03 08:35:00;;;;;;;1.55;0.60;;;9.00;99.90;;;;;;5060566;28;20248;-81
2023/02/03 08:37:30;;;;;;;0.50;0.40;;;9.00;99.90;;;;;;5043679;28;20238;-78
2023/02/03 08:39:57;;;;;;;1.27;0.77;;;9.00;99.90;;;;;;5062554;28;20241;-79
2023/02/03 08:42:24;;;;;;;1.73;1.15;;;9.00;99.90;;;;;;5062301;28;20321;-82
2023/02/03 08:44:51;;;;;;;1.95;1.67;;;9.00;99.90;;;;;;5060881;28;20218;-80
2023/02/03 08:47:18;;;;;;;7.30;1.52;;;9.00;99.90;;;;;;5059272;28;20249;-81
2023/02/03 08:49:45;;;;;;;0.50;0.40;;;9.00;99.90;;;;;;5061346;28;20286;-82
2023/02/03 08:52:13;;;;;;;1.10;1.00;;;9.00;99.90;;;;;;5061853;28;20277;-81
2023/02/03 08:54:41;;;;;;;1.15;1.05;;;9.00;99.90;;;;;;5059004;28;20225;-81
2023/02/03 08:57:08;;;;;;;1.23;1.13;;;9.00;99.90;;;;;;5060754;28;20218;-83
2023/02/03 08:59:39;;;;;;;2.80;1.67;;;9.00;99.90;;;;;;5058746;28;20297;-81
2023/02/03 09:02:08;;;;;;;0.50;0.40;;;9.10;99.90;;;;;;5058504;28;20201;-82
2023/02/03 09:04:35;;;;;;;0.50;0.40;;;9.10;99.90;;;;;;5058896;28;20191;-80
2023/02/03 09:07:03;;;;;;;0.50;0.40;;;9.10;99.90;;;;;;5059301;28;20223;-83
2023/02/03 09:09:30;;;;;;;0.80;0.80;;;9.10;99.90;;;;;;5056829;28;20556;-81
2023/02/03 09:12:01;;;;;;;0.50;0.40;;;9.10;99.90;;;;;;5059017;28;20567;-81
2023/02/03 09:14:28;;;;;;;0.98;0.98;;;9.10;99.90;;;;;;5056999;28;20199;-80
2023/02/03 09:16:55;;;;;;;0.50;0.40;;;9.10;99.90;;;;;;5059094;28;20245;-79
2023/02/03 09:19:22;;;;;;;1.70;0.93;;;9.10;99.90;;;;;;5058962;28;20237;-80
2023/02/03 09:21:49;;;;;;;0.60;0.57;;;9.10;99.90;;;;;;5057817;28;20202;-81
2023/02/03 09:24:16;;;;;;;1.27;1.20;;;9.10;99.90;;;;;;5058040;28;20265;-82
2023/02/03 09:26:43;;;;;;;0.50;0.40;;;9.10;99.90;;;;;;5057436;28;20242;-82
2023/02/03 09:29:12;;;;;;;0.50;0.40;;;9.10;99.90;;;;;;5058836;28;20226;-81
2023/02/03 09:31:38;;;;;;;1.15;1.15;;;9.20;99.90;;;;;;5056978;28;20687;-80
2023/02/03 09:34:05;;;;;;;0.70;0.70;;;9.10;99.90;;;;;;5057183;28;20725;-81
2023/02/03 09:36:32;;;;;;;0.98;0.77;;;9.20;99.90;;;;;;5058002;28;20222;-81
2023/02/03 09:38:59;;;;;;;1.25;1.25;;;9.20;99.90;;;;;;5058926;28;20221;-80
2023/02/03 09:41:45;;;;;;;0.70;0.70;;;9.10;99.90;;;;;;5045780;28;20560;-79
2023/02/03 09:44:20;;;;;;;1.15;0.70;;;9.20;99.90;;;;;;5054700;28;20202;-80
2023/02/03 09:46:50;;;;;;;8.20;2.05;;;9.20;99.90;;;;;;5057883;28;20218;-78
2023/02/03 09:49:24;;;;;;;0.82;0.82;;;9.20;99.90;;;;;;5058447;28;20281;-80
2023/02/03 09:51:53;;;;;;;0.70;0.60;;;9.20;99.90;;;;;;5058655;28;20735;-81
2023/02/03 09:54:26;;;;;;;0.85;0.82;;;9.30;99.90;;;;;;5059294;28;20198;-80
2023/02/03 09:56:54;;;;;;;2.78;0.95;;;9.30;99.90;;;;;;5058886;28;20321;-78
2023/02/03 09:59:23;;;;;;;0.98;0.82;;;9.30;99.90;;;;;;5058944;28;20214;-80
2023/02/03 10:01:59;;;;;;;15.35;1.13;;;9.30;99.90;;;;;;5060511;28;20218;-80
2023/02/03 10:04:34;;;;;;;1.23;1.13;;;9.30;99.90;;;;;;5060442;28;20198;-82
2023/02/03 10:07:08;;;;;;;0.50;0.40;;;9.40;99.90;;;;;;5066345;28;20222;-79
2023/02/03 10:09:48;;;;;;;5.20;1.55;;;9.40;99.90;;;;;;5063844;28;20186;-79
2023/02/03 10:12:50;;;;;;;0.50;0.40;;;9.50;99.90;;;;;;5064768;28;20238;-81
2023/02/03 10:15:45;;;;;;;1.38;1.30;;;9.50;99.90;;;;;;5064738;28;20218;-82
2023/02/03 10:18:16;;;;;;;0.80;0.63;;;9.50;99.90;;;;;;5063589;28;20627;-81
2023/02/03 10:20:47;;;;;;;1.08;0.93;;;9.50;99.90;;;;;;5061624;28;20222;-81
2023/02/03 10:23:17;;;;;;;0.50;0.38;;;9.50;99.90;;;;;;5067770;28;20214;-81
2023/02/03 10:25:49;;;;;;;1.05;0.68;;;9.50;99.90;;;;;;5061270;28;20221;-80
2023/02/03 10:28:19;;;;;;;0.80;0.80;;;9.50;99.90;;;;;;5067999;28;20190;-81
2023/02/03 10:30:52;;;;;;;1.15;1.08;;;9.50;99.90;;;;;;5066055;28;20611;-81
2023/02/03 10:33:20;;;;;;;1.30;1.00;;;9.60;99.90;;;;;;5059936;28;20225;-80
2023/02/03 10:35:50;;;;;;;1.15;1.05;;;9.60;99.90;;;;;;5066392;28;20206;-80
2023/02/03 10:38:30;;;;;;;1.00;1.00;;;9.60;99.90;;;;;;5062532;28;20200;-80
2023/02/03 10:40:57;;;;;;;3.47;1.17;;;9.60;99.90;;;;;;5065718;28;20631;-79
2023/02/03 10:46:10;;;;;;;0.60;0.60;;;9.60;99.90;;;;;;5064881;28;20448;-82
2023/02/03 10:48:37;;;;;;;0.68;0.68;;;9.60;99.90;;;;;;5063642;28;20229;-81
2023/02/03 10:51:04;;;;;;;0.55;0.52;;;9.70;99.90;;;;;;5066347;28;20233;-80
2023/02/03 10:53:34;;;;;;;0.77;0.77;;;9.60;99.90;;;;;;5066933;28;20203;-82
2023/02/03 10:56:05;;;;;;;0.50;0.40;;;9.70;99.90;;;;;;5062550;28;20214;-82
2023/02/03 10:58:34;;;;;;;0.50;0.50;;;9.70;99.90;;;;;;5065373;28;20179;-81
2023/02/03 11:01:13;;;;;;;1.35;0.95;;;9.80;99.90;;;;;;5063857;28;20190;-77
2023/02/03 11:03:43;;;;;;;0.50;0.50;;;9.80;99.90;;;;;;5064633;28;20177;-80
2023/02/03 11:06:12;;;;;;;1.20;1.10;;;9.80;99.90;;;;;;5065183;28;20222;-82
2023/02/03 11:08:41;;;;;;;0.50;0.43;;;9.80;99.90;;;;;;5064261;28;20205;-82
2023/02/03 11:11:13;;;;;;;0.77;0.70;;;9.80;99.90;;;;;;5065524;28;20264;-82
2023/02/03 11:13:40;;;;;;;0.98;0.93;;;9.80;99.90;;;;;;5065946;28;20734;-81
2023/02/03 11:16:13;;;;;;;0.57;0.57;;;9.80;99.90;;;;;;5064486;28;20319;-82
2023/02/03 11:18:45;;;;;;;1.75;1.45;;;9.80;99.90;;;;;;5059515;28;20197;-82
2023/02/03 11:21:18;;;;;;;1.77;1.13;;;9.80;99.90;;;;;;5063938;28;20183;-80
2023/02/03 11:23:52;;;;;;;1.40;1.30;;;9.80;99.90;;;;;;5061524;28;20210;-81
2023/02/03 11:26:22;;;;;;;0.50;0.40;;;9.80;99.90;;;;;;5061848;28;20221;-81
2023/02/03 11:28:52;;;;;;;0.70;0.70;;;9.70;99.90;;;;;;5062138;28;20198;-81
2023/02/03 11:31:24;;;;;;;0.90;0.90;;;9.80;99.90;;;;;;5062057;28;20262;-80
2023/02/03 11:33:58;;;;;;;1.02;1.02;;;9.80;99.90;;;;;;5062431;28;20514;-81
2023/02/03 11:36:30;;;;;;;0.50;0.40;;;9.80;99.90;;;;;;5065115;28;20242;-81
2023/02/03 11:39:11;;;;;;;0.50;0.40;;;9.80;99.90;;;;;;5062932;28;20494;-82
2023/02/03 11:41:40;;;;;;;1.45;0.88;;;9.80;99.90;;;;;;5063527;28;20190;-82
2023/02/03 11:44:13;;;;;;;0.50;0.50;;;9.80;99.90;;;;;;5060457;28;20195;-80
2023/02/03 11:46:42;;;;;;;1.10;1.00;;;9.80;99.90;;;;;;5061643;28;20214;-81
2023/02/03 11:49:20;;;;;;;2.67;2.58;;;9.80;99.90;;;;;;5058508;28;20703;-80
2023/02/03 11:51:54;;;;;;;1.23;1.23;;;9.80;99.90;;;;;;5061820;28;20270;-82
2023/02/03 11:54:29;;;;;;;5.38;2.95;;;9.90;99.90;;;;;;5060466;28;20673;-82
2023/02/03 11:57:21;;;;;;;1.27;0.55;;;9.90;99.90;;;;;;5065571;28;20222;-78
2023/02/03 12:00:11;;;;;;;0.60;0.60;;;9.90;99.90;;;;;;5066309;28;20203;-82
2023/02/03 12:03:14;;;;;;;0.98;0.93;;;9.90;99.90;;;;;;5062323;28;20252;-81
2023/02/03 12:06:07;;;;;;;1.13;1.10;;;9.90;99.90;;;;;;5064762;28;20221;-81
2023/02/03 12:08:50;;;;;;;0.50;0.40;;;9.90;99.90;;;;;;5038911;28;20674;-82
2023/02/03 12:11:31;;;;;;;0.80;0.60;;;10.00;99.90;;;;;;5062497;28;20182;-80
2023/02/03 12:14:16;;;;;;;0.90;0.90;;;10.00;99.90;;;;;;5062502;28;20285;-80
2023/02/03 12:17:12;;;;;;;1.17;0.98;;;9.90;99.90;;;;;;5061378;28;20241;-81
2023/02/03 12:19:55;;;;;;;1.70;1.60;;;10.00;99.90;;;;;;5061294;28;20282;-81
2023/02/03 12:22:29;;;;;;;0.73;0.65;;;10.00;99.90;;;;;;5059456;28;20282;-82
2023/02/03 12:25:04;;;;;;;1.83;1.02;;;10.00;99.90;;;;;;5060514;28;20186;-80
2023/02/03 12:27:41;;;;;;;1.25;1.25;;;10.00;99.90;;;;;;5060011;28;20590;-82
2023/02/03 12:30:15;;;;;;;1.20;1.10;;;10.00;99.90;;;;;;5057464;28;20206;-81
2023/02/03 12:32:48;;;;;;;2.50;2.30;;;10.00;99.90;;;;;;5059070;28;20213;-82
2023/02/03 12:35:21;;;;;;;0.60;0.45;;;10.00;99.90;;;;;;5057682;28;20246;-81
2023/02/03 12:37:56;;;;;;;1.73;1.52;;;10.00;99.90;;;;;;5057932;28;20257;-80
2023/02/03 12:40:35;;;;;;;0.70;0.70;;;10.00;99.90;;;;;;5057464;28;20267;-81
2023/02/03 12:43:16;;;;;;;0.60;0.60;;;10.10;99.90;;;;;;5059737;28;20204;-81
2023/02/03 12:45:51;;;;;;;0.60;0.50;;;10.10;99.90;;;;;;5057204;28;20229;-81
2023/02/03 12:48:23;;;;;;;1.70;1.60;;;10.10;99.90;;;;;;5059675;28;20221;-81
2023/02/03 12:50:54;;;;;;;1.45;1.35;;;10.10;99.90;;;;;;5060476;28;20191;-82
2023/02/03 12:53:29;;;;;;;0.50;0.40;;;10.00;99.90;;;;;;5062290;28;20240;-81
2023/02/03 12:56:03;;;;;;;0.60;0.40;;;10.00;99.90;;;;;;5062025;28;20217;-80
2023/02/03 12:58:34;;;;;;;2.05;1.80;;;9.90;99.90;;;;;;5059476;28;20194;-82
2023/02/03 13:01:07;;;;;;;15.50;1.40;;;9.90;99.90;;;;;;5056499;28;20218;-79
2023/02/03 13:03:41;;;;;;;12.05;2.78;;;9.90;99.90;;;;;;5058779;28;20270;-82
2023/02/03 13:06:16;;;;;;;1.02;0.95;;;9.90;99.90;;;;;;5056796;28;20290;-81
2023/02/03 13:08:49;;;;;;;1.13;0.63;;;9.90;99.90;;;;;;5060582;28;20224;-80
2023/02/03 13:11:23;;;;;;;0.98;0.98;;;9.80;99.90;;;;;;5062495;28;20203;-82
2023/02/03 13:13:54;;;;;;;1.13;1.13;;;9.90;99.90;;;;;;5062743;28;20175;-82
2023/02/03 13:16:28;;;;;;;2.95;0.80;;;9.90;99.90;;;;;;5061179;28;20337;-82
2023/02/03 13:19:02;;;;;;;0.85;0.85;;;10.00;99.90;;;;;;5058693;28;20195;-81